Time;durP1;ratioP1;P1;durP2;ratioP2;P2;SDS_P1;SDS_P2;PMS_P1;PMS_P2;Temp;Humidity;BMP_temperature;BMP_pressure;BME280_temperature;BME280_humidity;BME280_pressure;Samples;Min_cycle;Max_cycle;Signal;HPM_P1;HPM_P2
2022/04/18 00:00:03;;;;;;;12.13;4.60;;;;;;;;;;4988274;28;20034;-66
2022/04/18 00:02:34;;;;;;;6.45;3.67;;;;;;;;;;4990294;28;20038;-66
2022/04/18 00:05:00;;;;;;;9.45;3.78;;;;;;;;;;4990262;28;20400;-66
2022/04/18 00:07:26;;;;;;;8.43;3.45;;;;;;;;;;4989302;28;20058;-66
2022/04/18 00:09:53;;;;;;;10.05;4.30;;;;;;;;;;4989757;28;20026;-66
2022/04/18 00:12:19;;;;;;;11.65;4.10;;;;;;;;;;4988931;28;20019;-66
2022/04/18 00:14:45;;;;;;;9.05;3.95;;;;;;;;;;4983894;28;20368;-66
2022/04/18 00:17:11;;;;;;;8.18;4.03;;;;;;;;;;4985777;28;20027;-66
2022/04/18 00:19:38;;;;;;;10.93;4.25;;;;;;;;;;4984027;28;20023;-66
2022/04/18 00:22:05;;;;;;;12.90;4.85;;;;;;;;;;4971478;28;20039;-66
2022/04/18 00:24:31;;;;;;;12.18;4.63;;;;;;;;;;4975886;28;20034;-66
2022/04/18 00:26:57;;;;;;;13.05;4.45;;;;;;;;;;4983355;28;20026;-66
2022/04/18 00:29:23;;;;;;;11.90;4.88;;;;;;;;;;4979176;28;20439;-66
2022/04/18 00:31:49;;;;;;;10.05;4.70;;;;;;;;;;4986424;28;20436;-66
2022/04/18 00:34:16;;;;;;;11.13;4.25;;;;;;;;;;4981298;28;20050;-66
2022/04/18 00:36:43;;;;;;;18.45;5.55;;;;;;;;;;4998112;28;20035;-66
2022/04/18 00:39:09;;;;;;;12.73;4.93;;;;;;;;;;4993096;28;20113;-66
2022/04/18 00:41:36;;;;;;;17.25;5.38;;;;;;;;;;4981491;28;20058;-66
2022/04/18 00:44:02;;;;;;;14.95;5.10;;;;;;;;;;4991494;28;20479;-66
2022/04/18 00:46:29;;;;;;;11.60;5.53;;;;;;;;;;4980215;28;20125;-66
2022/04/18 00:48:56;;;;;;;18.30;5.60;;;;;;;;;;4981215;28;20039;-66
2022/04/18 00:51:24;;;;;;;12.52;4.40;;;;;;;;;;4984692;28;20040;-66
2022/04/18 00:53:55;;;;;;;18.38;5.63;;;;;;;;;;4984364;28;20030;-66
2022/04/18 00:56:21;;;;;;;8.10;4.35;;;;;;;;;;5001813;28;20047;-66
2022/04/18 00:58:48;;;;;;;22.00;5.28;;;;;;;;;;4975816;28;20050;-66
2022/04/18 01:01:15;;;;;;;11.20;4.63;;;;;;;;;;5068901;28;20079;-66
2022/04/18 01:03:42;;;;;;;13.32;5.00;;;;;;;;;;4990998;28;20030;-66
2022/04/18 01:06:08;;;;;;;15.05;4.78;;;;;;;;;;4972621;28;20027;-66
2022/04/18 01:08:35;;;;;;;18.10;4.43;;;;;;;;;;4979384;28;20403;-66
2022/04/18 01:11:02;;;;;;;14.18;4.60;;;;;;;;;;4982344;28;20041;-66
2022/04/18 01:13:47;;;;;;;14.57;4.57;;;;;;;;;;4989004;28;20045;-66
2022/04/18 01:16:34;;;;;;;14.70;4.80;;;;;;;;;;4973405;28;20072;-66
2022/04/18 01:19:16;;;;;;;21.50;6.10;;;;;;;;;;4972095;28;20034;-66
2022/04/18 01:22:00;;;;;;;20.38;5.05;;;;;;;;;;4974512;28;20096;-66
2022/04/18 01:30:24;;;;;;;17.88;4.05;;;;;;;;;;5035483;28;20032;-66
2022/04/18 01:32:51;;;;;;;20.33;4.72;;;;;;;;;;5051981;28;20473;-66
2022/04/18 01:35:17;;;;;;;28.52;4.60;;;;;;;;;;5031998;28;20538;-66
2022/04/18 01:37:43;;;;;;;20.45;5.47;;;;;;;;;;5039277;28;20087;-66
2022/04/18 01:40:13;;;;;;;14.52;4.80;;;;;;;;;;5042806;28;20452;-66
2022/04/18 01:42:40;;;;;;;25.77;4.75;;;;;;;;;;5033607;28;20017;-66
2022/04/18 01:45:08;;;;;;;9.73;3.97;;;;;;;;;;5047128;28;20526;-66
2022/04/18 01:47:34;;;;;;;14.45;4.70;;;;;;;;;;5033777;28;20039;-66
2022/04/18 01:50:00;;;;;;;17.45;4.85;;;;;;;;;;5041402;28;20395;-66
2022/04/18 01:52:27;;;;;;;17.83;5.30;;;;;;;;;;5036299;28;20033;-66
2022/04/18 01:54:53;;;;;;;16.52;4.70;;;;;;;;;;5034915;28;20064;-66
2022/04/18 01:57:21;;;;;;;18.90;5.25;;;;;;;;;;5037664;28;20122;-66
2022/04/18 01:59:48;;;;;;;20.05;4.78;;;;;;;;;;5019599;28;20029;-66
2022/04/18 02:02:15;;;;;;;20.35;4.63;;;;;;;;;;5031811;28;20036;-66
2022/04/18 02:04:41;;;;;;;16.67;4.47;;;;;;;;;;5008134;28;20051;-66
2022/04/18 02:07:11;;;;;;;24.55;5.18;;;;;;;;;;4974256;28;20030;-66
2022/04/18 02:09:39;;;;;;;15.52;4.20;;;;;;;;;;4985150;28;20490;-66
2022/04/18 02:12:08;;;;;;;21.67;4.25;;;;;;;;;;4972551;28;20080;-67
2022/04/18 02:14:47;;;;;;;25.35;4.85;;;;;;;;;;4973028;28;20039;-66
2022/04/18 02:17:14;;;;;;;32.92;5.55;;;;;;;;;;4970824;28;20516;-66
2022/04/18 02:19:40;;;;;;;20.10;5.07;;;;;;;;;;4970934;28;20488;-66
2022/04/18 02:22:06;;;;;;;18.10;4.38;;;;;;;;;;4982469;28;20080;-66
2022/04/18 02:24:33;;;;;;;23.88;4.10;;;;;;;;;;4972278;28;20031;-66
2022/04/18 02:26:59;;;;;;;19.77;4.43;;;;;;;;;;5005663;28;20024;-66
2022/04/18 02:29:25;;;;;;;15.43;3.80;;;;;;;;;;5028923;28;20033;-66
2022/04/18 02:34:36;;;;;;;18.88;3.95;;;;;;;;;;4972027;28;20030;-66
2022/04/18 02:37:03;;;;;;;17.92;3.35;;;;;;;;;;4970197;28;20034;-66
2022/04/18 02:39:35;;;;;;;20.38;3.70;;;;;;;;;;4988271;28;20125;-66
2022/04/18 02:42:03;;;;;;;25.65;3.78;;;;;;;;;;4991714;28;20038;-66
2022/04/18 02:44:32;;;;;;;25.02;4.78;;;;;;;;;;4987066;28;20426;-66
2022/04/18 02:46:59;;;;;;;18.73;3.10;;;;;;;;;;4990473;28;20031;-66
2022/04/18 02:49:25;;;;;;;18.67;3.45;;;;;;;;;;4984606;28;20469;-66
2022/04/18 02:51:51;;;;;;;14.73;3.25;;;;;;;;;;4970334;28;20475;-66
2022/04/18 02:54:19;;;;;;;18.85;3.83;;;;;;;;;;4970208;28;20035;-66
2022/04/18 02:56:45;;;;;;;14.88;4.07;;;;;;;;;;4983853;28;20576;-66
2022/04/18 02:59:11;;;;;;;16.25;3.38;;;;;;;;;;4989660;28;20034;-66
2022/04/18 03:01:38;;;;;;;21.80;2.97;;;;;;;;;;4990168;28;20026;-66
2022/04/18 03:04:05;;;;;;;19.35;3.60;;;;;;;;;;4991154;28;20022;-66
2022/04/18 03:06:31;;;;;;;15.07;3.00;;;;;;;;;;4989377;28;20062;-66
2022/04/18 03:08:57;;;;;;;14.85;3.20;;;;;;;;;;4989175;28;20027;-66
2022/04/18 03:11:24;;;;;;;22.02;3.45;;;;;;;;;;4971181;28;20066;-66
2022/04/18 03:13:50;;;;;;;23.50;4.10;;;;;;;;;;4970250;28;20031;-66
2022/04/18 03:16:43;;;;;;;12.80;3.85;;;;;;;;;;4974586;28;20068;-66
2022/04/18 03:19:10;;;;;;;21.25;3.67;;;;;;;;;;4970016;28;20550;-66
2022/04/18 03:21:45;;;;;;;15.40;3.00;;;;;;;;;;4981216;28;20045;-66
2022/04/18 03:24:11;;;;;;;24.17;3.53;;;;;;;;;;4989368;28;20075;-66
2022/04/18 03:26:55;;;;;;;18.50;3.38;;;;;;;;;;4989558;28;20046;-66
2022/04/18 03:29:27;;;;;;;18.97;3.30;;;;;;;;;;4990659;28;20503;-66
2022/04/18 03:31:54;;;;;;;22.02;3.50;;;;;;;;;;4989489;28;20799;-66
2022/04/18 03:34:26;;;;;;;19.00;3.92;;;;;;;;;;4987323;28;20038;-66
2022/04/18 03:39:51;;;;;;;18.25;4.07;;;;;;;;;;4988115;28;20042;-66
2022/04/18 03:42:28;;;;;;;19.83;4.25;;;;;;;;;;4986580;28;20034;-66
2022/04/18 03:44:55;;;;;;;12.77;3.05;;;;;;;;;;4983995;28;20038;-66
2022/04/18 03:47:22;;;;;;;16.55;3.17;;;;;;;;;;4983532;28;20376;-66
2022/04/18 03:49:48;;;;;;;23.35;3.33;;;;;;;;;;4984696;28;20034;-66
2022/04/18 03:52:14;;;;;;;13.90;2.83;;;;;;;;;;4989139;28;20388;-66
2022/04/18 03:54:43;;;;;;;23.35;3.13;;;;;;;;;;4982864;28;20061;-66
2022/04/18 03:57:14;;;;;;;17.65;3.13;;;;;;;;;;4969543;28;20455;-66
2022/04/18 04:00:00;;;;;;;14.05;3.47;;;;;;;;;;4974427;28;20043;-66
2022/04/18 04:02:27;;;;;;;8.98;2.97;;;;;;;;;;4972943;28;20038;-66
2022/04/18 04:04:55;;;;;;;14.70;2.78;;;;;;;;;;4975545;28;20109;-66
2022/04/18 04:07:21;;;;;;;14.35;2.85;;;;;;;;;;5062227;28;20492;-66
2022/04/18 04:09:58;;;;;;;8.23;2.30;;;;;;;;;;4978395;28;20030;-66
2022/04/18 04:12:25;;;;;;;15.32;3.05;;;;;;;;;;4992031;28;20107;-66
2022/04/18 04:15:11;;;;;;;9.95;2.50;;;;;;;;;;4993548;28;20062;-66
2022/04/18 04:17:44;;;;;;;13.55;2.67;;;;;;;;;;4991939;28;20045;-66
2022/04/18 04:20:11;;;;;;;12.75;2.80;;;;;;;;;;4990314;28;20034;-66
2022/04/18 04:22:37;;;;;;;16.27;3.67;;;;;;;;;;4973547;28;20435;-66
2022/04/18 04:25:23;;;;;;;11.80;2.65;;;;;;;;;;4976133;28;20095;-66
2022/04/18 04:27:50;;;;;;;9.63;2.53;;;;;;;;;;4992438;28;20046;-66
2022/04/18 04:30:17;;;;;;;12.30;3.28;;;;;;;;;;4986359;28;20031;-66
2022/04/18 04:32:55;;;;;;;15.48;2.78;;;;;;;;;;4972439;28;20431;-66
2022/04/18 04:35:21;;;;;;;17.08;2.58;;;;;;;;;;4986748;28;20045;-66
2022/04/18 04:38:02;;;;;;;13.40;2.78;;;;;;;;;;4992079;28;20034;-66
2022/04/18 04:40:58;;;;;;;14.13;2.67;;;;;;;;;;4998817;28;20038;-66
2022/04/18 04:43:40;;;;;;;11.88;2.63;;;;;;;;;;4977453;28;20031;-66
2022/04/18 04:46:10;;;;;;;9.02;2.35;;;;;;;;;;4972704;28;20039;-66
2022/04/18 04:48:44;;;;;;;11.63;2.70;;;;;;;;;;4972737;28;20042;-66
2022/04/18 04:51:15;;;;;;;11.57;2.55;;;;;;;;;;4982563;28;20083;-66
2022/04/18 04:53:41;;;;;;;11.70;2.95;;;;;;;;;;4972285;28;20035;-66
2022/04/18 04:56:11;;;;;;;10.90;2.53;;;;;;;;;;4972790;28;20066;-66
2022/04/18 04:58:38;;;;;;;12.73;2.20;;;;;;;;;;4991507;28;20125;-66
2022/04/18 05:01:09;;;;;;;15.23;2.88;;;;;;;;;;4982112;28;20027;-66
2022/04/18 05:03:44;;;;;;;4.85;2.38;;;;;;;;;;4988497;28;20376;-66
2022/04/18 05:06:11;;;;;;;11.43;2.47;;;;;;;;;;4974096;28;20027;-66
2022/04/18 05:08:47;;;;;;;12.82;2.58;;;;;;;;;;4971463;28;20019;-66
2022/04/18 05:11:15;;;;;;;4.60;3.17;;;;;;;;;;4975665;28;20027;-66
2022/04/18 05:14:01;;;;;;;11.35;2.30;;;;;;;;;;4985415;28;20110;-66
2022/04/18 05:16:40;;;;;;;9.80;2.42;;;;;;;;;;4980891;28;20022;-66
2022/04/18 05:19:24;;;;;;;9.13;2.20;;;;;;;;;;4992925;28;20053;-66
2022/04/18 05:22:02;;;;;;;10.23;2.45;;;;;;;;;;4990091;28;20126;-66
2022/04/18 05:24:33;;;;;;;9.13;2.10;;;;;;;;;;4991220;28;20031;-66
2022/04/18 05:27:00;;;;;;;13.50;2.15;;;;;;;;;;4990301;28;20030;-66
2022/04/18 05:29:28;;;;;;;8.45;2.30;;;;;;;;;;4990638;28;20026;-66
2022/04/18 05:31:54;;;;;;;6.85;2.10;;;;;;;;;;4990798;28;20030;-66
2022/04/18 05:34:22;;;;;;;8.52;2.35;;;;;;;;;;4989368;28;20034;-66
2022/04/18 05:36:52;;;;;;;14.65;2.78;;;;;;;;;;4983743;28;20649;-66
2022/04/18 05:39:38;;;;;;;15.05;3.50;;;;;;;;;;4982151;28;20140;-66
2022/04/18 05:42:07;;;;;;;12.50;2.38;;;;;;;;;;4991276;28;20030;-66
2022/04/18 05:44:33;;;;;;;15.90;2.72;;;;;;;;;;4976456;28;20027;-66
2022/04/18 05:47:00;;;;;;;10.65;2.53;;;;;;;;;;4975498;28;20030;-66
2022/04/18 05:49:28;;;;;;;13.55;2.55;;;;;;;;;;4984085;28;20028;-66
2022/04/18 05:51:57;;;;;;;17.70;2.25;;;;;;;;;;4979121;28;20121;-66
2022/04/18 05:54:24;;;;;;;19.70;3.40;;;;;;;;;;4978960;28;20070;-66
2022/04/18 05:56:55;;;;;;;10.60;2.47;;;;;;;;;;4981972;28;20062;-66
2022/04/18 05:59:29;;;;;;;13.75;2.72;;;;;;;;;;4978124;28;20023;-66
2022/04/18 06:02:02;;;;;;;14.82;2.58;;;;;;;;;;4983005;28;20125;-66
2022/04/18 06:04:34;;;;;;;21.15;2.38;;;;;;;;;;4985654;28;20032;-66
2022/04/18 06:07:32;;;;;;;12.18;2.65;;;;;;;;;;5028315;28;20027;-66
2022/04/18 06:10:27;;;;;;;20.65;4.30;;;;;;;;;;4992464;28;20026;-66
2022/04/18 06:13:14;;;;;;;15.90;2.53;;;;;;;;;;4989151;28;20048;-66
2022/04/18 06:15:40;;;;;;;16.00;2.22;;;;;;;;;;4983695;28;20030;-66
2022/04/18 06:18:06;;;;;;;13.35;2.35;;;;;;;;;;4979363;28;20037;-66
2022/04/18 06:20:33;;;;;;;18.60;2.72;;;;;;;;;;4995362;28;20034;-66
2022/04/18 06:22:59;;;;;;;23.77;4.43;;;;;;;;;;4979145;28;20464;-66
2022/04/18 06:25:26;;;;;;;15.63;3.35;;;;;;;;;;4980371;28;20035;-66
2022/04/18 06:27:52;;;;;;;14.82;3.97;;;;;;;;;;4980616;28;20030;-66
2022/04/18 06:30:19;;;;;;;9.60;2.35;;;;;;;;;;4979533;28;20454;-66
2022/04/18 06:33:20;;;;;;;6.00;2.03;;;;;;;;;;4976285;28;20023;-66
2022/04/18 06:35:47;;;;;;;7.88;1.88;;;;;;;;;;4983806;28;20034;-66
2022/04/18 06:38:14;;;;;;;12.25;2.53;;;;;;;;;;4980134;28;20487;-66
2022/04/18 06:41:02;;;;;;;11.98;1.85;;;;;;;;;;4982322;28;20076;-66
2022/04/18 06:43:31;;;;;;;11.93;2.90;;;;;;;;;;4984905;28;20034;-66
2022/04/18 06:45:58;;;;;;;13.68;2.65;;;;;;;;;;4977324;28;20486;-66
2022/04/18 06:48:26;;;;;;;9.05;2.35;;;;;;;;;;4980005;28;20023;-66
2022/04/18 06:51:21;;;;;;;13.82;2.42;;;;;;;;;;5017971;28;20485;-66
2022/04/18 06:54:16;;;;;;;11.07;2.22;;;;;;;;;;5001232;28;20046;-66
2022/04/18 06:57:11;;;;;;;14.85;2.63;;;;;;;;;;4979081;28;20163;-66
2022/04/18 06:59:40;;;;;;;10.57;2.33;;;;;;;;;;4997991;28;20030;-66
2022/04/18 07:02:07;;;;;;;12.35;2.53;;;;;;;;;;4975000;28;20129;-66
2022/04/18 07:04:34;;;;;;;20.50;2.45;;;;;;;;;;4995301;28;20514;-66
2022/04/18 07:07:00;;;;;;;9.60;2.47;;;;;;;;;;4982483;28;20022;-65
2022/04/18 07:09:27;;;;;;;14.65;2.85;;;;;;;;;;4985082;28;20125;-65
2022/04/18 07:12:00;;;;;;;;;;;;;;;;;;4999196;28;20037;-65
2022/04/18 07:14:26;;;;;;;16.52;2.20;;;;;;;;;;4991232;28;19910;-65
2022/04/18 07:16:57;;;;;;;9.73;1.90;;;;;;;;;;4977842;28;20286;-65
2022/04/18 07:19:28;;;;;;;10.77;2.25;;;;;;;;;;4984692;28;20068;-65
2022/04/18 07:21:55;;;;;;;18.20;3.08;;;;;;;;;;4977718;28;20052;-66
2022/04/18 07:24:23;;;;;;;16.77;2.53;;;;;;;;;;4984647;28;20030;-66
2022/04/18 07:26:53;;;;;;;14.35;2.25;;;;;;;;;;4992146;28;20037;-66
2022/04/18 07:29:19;;;;;;;14.15;3.28;;;;;;;;;;4917692;28;20043;-65
2022/04/18 07:31:46;;;;;;;8.95;1.90;;;;;;;;;;4972863;28;20038;-65
2022/04/18 07:34:13;;;;;;;16.83;2.47;;;;;;;;;;4972331;28;20030;-65
2022/04/18 07:36:39;;;;;;;13.75;3.40;;;;;;;;;;4972779;28;20018;-65
2022/04/18 07:39:08;;;;;;;8.13;2.03;;;;;;;;;;4982853;28;20113;-65
2022/04/18 07:41:37;;;;;;;11.35;1.60;;;;;;;;;;5027602;28;20409;-65
2022/04/18 07:44:04;;;;;;;12.10;2.40;;;;;;;;;;4977911;28;20445;-65
2022/04/18 07:46:32;;;;;;;11.68;1.88;;;;;;;;;;4976685;28;20476;-65
2022/04/18 07:49:00;;;;;;;13.93;1.90;;;;;;;;;;4976333;28;20028;-65
2022/04/18 07:51:36;;;;;;;10.30;2.70;;;;;;;;;;4979943;28;20046;-65
2022/04/18 07:54:23;;;;;;;21.50;2.67;;;;;;;;;;4980841;28;20411;-65
2022/04/18 07:56:50;;;;;;;10.80;2.20;;;;;;;;;;4982682;28;20089;-65
2022/04/18 07:59:22;;;;;;;14.57;2.35;;;;;;;;;;4992014;28;20065;-65
2022/04/18 08:01:48;;;;;;;11.27;1.90;;;;;;;;;;4986002;28;20027;-65
2022/04/18 08:04:34;;;;;;;9.85;1.73;;;;;;;;;;4979592;28;20521;-65
2022/04/18 08:07:01;;;;;;;15.25;1.75;;;;;;;;;;4987149;28;20041;-65
2022/04/18 08:09:27;;;;;;;10.85;2.05;;;;;;;;;;4982590;28;20022;-65
2022/04/18 08:11:53;;;;;;;8.00;1.73;;;;;;;;;;4976133;28;20511;-66
2022/04/18 08:14:27;;;;;;;12.55;2.17;;;;;;;;;;4980886;28;20054;-65
2022/04/18 08:17:00;;;;;;;6.43;1.80;;;;;;;;;;4971194;28;20038;-65
2022/04/18 08:19:39;;;;;;;7.97;1.70;;;;;;;;;;4981766;28;20038;-65
2022/04/18 08:22:06;;;;;;;11.18;1.90;;;;;;;;;;4982729;28;20034;-65
2022/04/18 08:24:39;;;;;;;15.77;2.13;;;;;;;;;;4984858;28;20503;-65
2022/04/18 08:27:28;;;;;;;12.20;2.30;;;;;;;;;;4977340;28;20027;-65
2022/04/18 08:30:07;;;;;;;16.98;2.22;;;;;;;;;;4979041;28;20109;-65
2022/04/18 08:32:48;;;;;;;10.20;2.08;;;;;;;;;;4986239;28;20400;-66
2022/04/18 08:35:15;;;;;;;13.52;2.65;;;;;;;;;;4984290;28;20031;-66
2022/04/18 08:37:41;;;;;;;10.40;2.03;;;;;;;;;;4981688;28;20037;-66
2022/04/18 08:40:26;;;;;;;12.20;2.35;;;;;;;;;;4980556;28;20391;-66
2022/04/18 08:42:56;;;;;;;12.00;1.92;;;;;;;;;;4991898;28;20034;-66
2022/04/18 08:45:24;;;;;;;13.32;2.50;;;;;;;;;;4983814;28;20026;-66
2022/04/18 08:53:26;;;;;;;12.70;2.40;;;;;;;;;;4980320;28;20035;-66
2022/04/18 08:55:54;;;;;;;8.70;2.75;;;;;;;;;;4974120;28;20420;-65
2022/04/18 08:58:41;;;;;;;9.93;2.13;;;;;;;;;;4983107;28;20373;-66
2022/04/18 09:01:11;;;;;;;12.18;2.35;;;;;;;;;;4980997;28;20032;-66
2022/04/18 09:03:46;;;;;;;15.05;2.53;;;;;;;;;;4982100;28;20042;-66
2022/04/18 09:06:13;;;;;;;9.88;1.88;;;;;;;;;;4979640;28;20031;-66
2022/04/18 09:08:55;;;;;;;15.73;2.40;;;;;;;;;;4990946;28;20027;-66
2022/04/18 09:11:31;;;;;;;11.43;2.15;;;;;;;;;;4977832;28;20059;-66
2022/04/18 09:14:07;;;;;;;8.95;2.00;;;;;;;;;;5008741;28;20384;-66
2022/04/18 09:16:34;;;;;;;8.43;2.10;;;;;;;;;;4989362;28;20451;-66
2022/04/18 09:19:09;;;;;;;14.30;2.38;;;;;;;;;;4981929;28;20046;-66
2022/04/18 09:21:41;;;;;;;15.20;2.63;;;;;;;;;;4984338;28;21417;-66
2022/04/18 09:24:07;;;;;;;12.30;2.63;;;;;;;;;;4983437;28;20057;-65
2022/04/18 09:26:40;;;;;;;7.05;2.15;;;;;;;;;;4985280;28;20503;-65
2022/04/18 09:29:08;;;;;;;14.23;2.55;;;;;;;;;;4984764;28;20496;-65
2022/04/18 09:31:41;;;;;;;8.45;3.00;;;;;;;;;;4986965;28;20034;-65
2022/04/18 09:34:24;;;;;;;14.20;2.85;;;;;;;;;;4981427;28;20039;-65
2022/04/18 09:37:09;;;;;;;14.63;2.28;;;;;;;;;;4975625;28;20056;-65
2022/04/18 09:39:36;;;;;;;13.82;2.50;;;;;;;;;;4984332;28;20037;-64
2022/04/18 09:42:14;;;;;;;7.82;1.73;;;;;;;;;;4983448;28;20558;-64
2022/04/18 09:45:01;;;;;;;10.10;2.08;;;;;;;;;;4981123;28;20026;-64
2022/04/18 09:47:33;;;;;;;8.52;2.70;;;;;;;;;;4981079;28;20024;-65
2022/04/18 09:53:26;;;;;;;;;;;;;;;;;;5033897;28;20078;-65
2022/04/18 09:55:55;;;;;;;10.52;2.38;;;;;;;;;;5033699;28;19927;-65
2022/04/18 09:58:21;;;;;;;9.48;2.17;;;;;;;;;;5038935;28;20032;-65
2022/04/18 10:00:48;;;;;;;7.63;1.95;;;;;;;;;;5038661;28;20045;-65
2022/04/18 10:03:15;;;;;;;8.27;1.98;;;;;;;;;;5037922;28;20048;-67
2022/04/18 10:05:41;;;;;;;9.98;2.03;;;;;;;;;;5036368;28;20479;-66
2022/04/18 10:08:07;;;;;;;9.15;2.22;;;;;;;;;;5034428;28;20033;-66
2022/04/18 10:10:40;;;;;;;12.68;2.20;;;;;;;;;;5034601;28;20032;-66
2022/04/18 10:13:06;;;;;;;;;;;;;;;;;;5039132;28;20029;-66
2022/04/18 10:15:34;;;;;;;11.98;2.10;;;;;;;;;;5044957;28;20403;-66
2022/04/18 10:18:04;;;;;;;9.25;2.22;;;;;;;;;;5039956;28;20029;-66
2022/04/18 10:20:42;;;;;;;14.93;2.58;;;;;;;;;;5036477;28;20604;-66
2022/04/18 10:23:11;;;;;;;11.75;1.92;;;;;;;;;;5032526;28;20033;-66
2022/04/18 10:25:46;;;;;;;9.95;2.33;;;;;;;;;;5039633;28;20528;-66
2022/04/18 10:28:19;;;;;;;7.40;1.95;;;;;;;;;;5013976;28;20061;-66
2022/04/18 10:30:48;;;;;;;9.43;2.25;;;;;;;;;;4990386;28;20368;-65
2022/04/18 10:33:16;;;;;;;8.23;2.13;;;;;;;;;;4988655;28;20368;-65
2022/04/18 10:35:46;;;;;;;18.35;2.67;;;;;;;;;;4978620;28;20035;-65
2022/04/18 10:38:12;;;;;;;8.45;1.90;;;;;;;;;;4971545;28;20110;-65
2022/04/18 10:40:40;;;;;;;10.20;2.20;;;;;;;;;;4977009;28;21800;-66
2022/04/18 10:43:10;;;;;;;10.30;2.28;;;;;;;;;;4976612;28;20030;-66
2022/04/18 10:45:36;;;;;;;8.27;1.92;;;;;;;;;;4986806;28;20490;-66
2022/04/18 10:48:06;;;;;;;6.72;1.40;;;;;;;;;;4975581;28;20015;-66
2022/04/18 10:50:32;;;;;;;7.70;2.42;;;;;;;;;;4982874;28;20798;-66
2022/04/18 10:53:24;;;;;;;12.32;2.70;;;;;;;;;;4980930;28;20113;-66
2022/04/18 10:55:52;;;;;;;8.27;1.50;;;;;;;;;;4996178;28;20051;-66
2022/04/18 10:58:21;;;;;;;8.38;1.83;;;;;;;;;;4981827;28;20038;-66
2022/04/18 11:00:51;;;;;;;9.98;2.22;;;;;;;;;;4979529;28;20464;-66
2022/04/18 11:03:36;;;;;;;7.97;2.25;;;;;;;;;;4981184;28;20089;-66
2022/04/18 11:06:37;;;;;;;7.00;2.05;;;;;;;;;;4975372;28;20172;-66
2022/04/18 11:09:07;;;;;;;10.98;2.25;;;;;;;;;;4991342;28;20055;-66
2022/04/18 11:11:36;;;;;;;10.35;2.35;;;;;;;;;;4982851;28;20023;-71
2022/04/18 11:14:13;;;;;;;6.20;2.15;;;;;;;;;;4971271;28;20080;-67
2022/04/18 11:16:42;;;;;;;11.57;2.25;;;;;;;;;;4977564;28;20476;-67
2022/04/18 11:19:14;;;;;;;10.63;2.47;;;;;;;;;;4979946;28;20038;-67
2022/04/18 11:21:54;;;;;;;9.70;2.50;;;;;;;;;;4984778;28;20084;-67
2022/04/18 11:24:44;;;;;;;10.27;2.30;;;;;;;;;;4976891;28;20118;-67
2022/04/18 11:27:11;;;;;;;8.02;2.17;;;;;;;;;;4978151;28;20059;-67
2022/04/18 11:29:41;;;;;;;13.95;2.97;;;;;;;;;;4971967;28;20023;-67
2022/04/18 11:32:07;;;;;;;14.13;2.40;;;;;;;;;;4979620;28;20038;-67
2022/04/18 11:34:34;;;;;;;13.75;2.20;;;;;;;;;;4974937;28;20042;-67
2022/04/18 11:37:02;;;;;;;7.28;2.28;;;;;;;;;;4978518;28;20060;-67
2022/04/18 11:39:42;;;;;;;10.45;2.30;;;;;;;;;;4981303;28;20034;-67
2022/04/18 11:42:08;;;;;;;10.10;2.65;;;;;;;;;;4975974;28;20019;-66
2022/04/18 11:44:39;;;;;;;10.55;2.30;;;;;;;;;;4976248;28;20037;-65
2022/04/18 11:47:24;;;;;;;7.63;2.30;;;;;;;;;;4979235;28;20027;-66
2022/04/18 11:49:55;;;;;;;12.15;2.10;;;;;;;;;;4986973;28;20119;-66
2022/04/18 11:52:32;;;;;;;12.25;2.47;;;;;;;;;;4979024;28;20031;-66
2022/04/18 11:54:59;;;;;;;14.82;2.58;;;;;;;;;;4980189;28;20041;-66
2022/04/18 11:57:26;;;;;;;13.55;2.15;;;;;;;;;;4976375;28;20508;-66
2022/04/18 11:59:52;;;;;;;14.57;2.33;;;;;;;;;;4977976;28;20061;-66
2022/04/18 12:07:52;;;;;;;9.25;2.00;;;;;;;;;;4977671;28;20068;-66
2022/04/18 12:10:25;;;;;;;11.50;2.28;;;;;;;;;;4977856;28;20019;-66
2022/04/18 12:12:52;;;;;;;7.05;2.00;;;;;;;;;;4969299;28;20373;-66
2022/04/18 12:15:22;;;;;;;6.85;2.28;;;;;;;;;;4974822;28;20080;-66
2022/04/18 12:17:48;;;;;;;11.43;2.58;;;;;;;;;;4980511;28;20026;-66
2022/04/18 12:20:21;;;;;;;12.55;3.08;;;;;;;;;;4980373;28;20046;-66
2022/04/18 12:22:54;;;;;;;12.30;2.83;;;;;;;;;;4981240;28;20031;-66
2022/04/18 12:25:25;;;;;;;7.93;3.03;;;;;;;;;;4976556;28;20026;-66
2022/04/18 12:27:51;;;;;;;10.45;2.22;;;;;;;;;;4984800;28;20118;-66
2022/04/18 12:30:18;;;;;;;12.15;1.85;;;;;;;;;;4981704;28;20026;-66
2022/04/18 12:32:47;;;;;;;11.65;2.97;;;;;;;;;;4983617;28;20042;-66
2022/04/18 12:35:17;;;;;;;8.48;1.90;;;;;;;;;;4977757;28;20031;-67
2022/04/18 12:37:47;;;;;;;8.38;2.08;;;;;;;;;;4984013;28;20071;-66
2022/04/18 12:40:17;;;;;;;13.48;2.15;;;;;;;;;;4983884;28;20026;-66
2022/04/18 12:42:50;;;;;;;11.07;2.75;;;;;;;;;;4982793;28;20030;-66
2022/04/18 12:45:16;;;;;;;10.57;2.60;;;;;;;;;;4979227;28;20475;-66
2022/04/18 12:47:42;;;;;;;8.43;1.55;;;;;;;;;;5007619;28;20034;-66
2022/04/18 12:50:10;;;;;;;8.68;1.85;;;;;;;;;;4978547;28;20026;-66
2022/04/18 12:52:46;;;;;;;4.55;1.80;;;;;;;;;;4980773;28;20476;-65
2022/04/18 12:55:13;;;;;;;8.32;1.63;;;;;;;;;;4983217;28;20043;-66
2022/04/18 12:57:39;;;;;;;9.38;2.63;;;;;;;;;;4975213;28;20026;-65
2022/04/18 13:00:09;;;;;;;9.13;2.15;;;;;;;;;;4979916;28;20084;-65
2022/04/18 13:02:35;;;;;;;10.35;2.17;;;;;;;;;;4982938;28;20042;-65
2022/04/18 13:05:01;;;;;;;7.82;2.03;;;;;;;;;;4980213;28;20026;-65
2022/04/18 13:07:28;;;;;;;8.30;1.48;;;;;;;;;;4982958;28;20038;-65
2022/04/18 13:10:03;;;;;;;5.82;1.80;;;;;;;;;;4981633;28;20022;-65
2022/04/18 13:12:33;;;;;;;12.77;2.45;;;;;;;;;;4980270;28;20609;-65
2022/04/18 13:15:05;;;;;;;5.53;1.42;;;;;;;;;;4985355;28;20083;-65
2022/04/18 13:17:35;;;;;;;12.27;1.65;;;;;;;;;;4979376;28;20035;-65
2022/04/18 13:20:07;;;;;;;7.90;1.98;;;;;;;;;;4980977;28;20037;-65
2022/04/18 13:22:33;;;;;;;7.82;1.73;;;;;;;;;;4984809;28;20048;-65
2022/04/18 13:24:59;;;;;;;8.43;2.90;;;;;;;;;;4977206;28;20666;-65
2022/04/18 13:27:27;;;;;;;12.48;2.80;;;;;;;;;;4983906;28;20023;-65
2022/04/18 13:29:53;;;;;;;4.90;1.73;;;;;;;;;;4982417;28;20027;-65
2022/04/18 13:32:19;;;;;;;7.65;1.83;;;;;;;;;;4982754;28;20038;-65
2022/04/18 13:34:45;;;;;;;11.43;2.28;;;;;;;;;;4981517;28;20044;-65
2022/04/18 13:37:13;;;;;;;6.90;1.77;;;;;;;;;;4982242;28;20073;-65
2022/04/18 13:39:39;;;;;;;8.00;2.22;;;;;;;;;;4978820;28;20105;-65
2022/04/18 13:42:05;;;;;;;7.18;1.80;;;;;;;;;;4978473;28;20031;-66
2022/04/18 13:44:31;;;;;;;13.88;2.50;;;;;;;;;;4977431;28;20377;-66
2022/04/18 13:46:57;;;;;;;11.68;2.53;;;;;;;;;;4978523;28;20050;-66
2022/04/18 13:49:24;;;;;;;13.02;2.45;;;;;;;;;;4981495;28;20105;-66
2022/04/18 13:51:53;;;;;;;11.30;2.42;;;;;;;;;;4982436;28;20544;-65
2022/04/18 13:54:19;;;;;;;14.15;2.13;;;;;;;;;;4979450;28;20034;-65
2022/04/18 13:56:46;;;;;;;14.45;2.38;;;;;;;;;;4978546;28;20054;-66
2022/04/18 13:59:14;;;;;;;11.55;1.77;;;;;;;;;;4979167;28;20083;-65
2022/04/18 14:01:40;;;;;;;11.18;1.58;;;;;;;;;;4980545;28;20035;-64
2022/04/18 14:04:07;;;;;;;6.28;1.85;;;;;;;;;;4980393;28;20030;-64
2022/04/18 14:06:33;;;;;;;6.25;1.58;;;;;;;;;;4977568;28;20049;-64
2022/04/18 14:08:59;;;;;;;12.80;2.15;;;;;;;;;;4976705;28;20014;-64
2022/04/18 14:11:25;;;;;;;12.15;3.03;;;;;;;;;;4977148;28;20089;-64
2022/04/18 14:13:51;;;;;;;10.52;2.28;;;;;;;;;;4979617;28;20506;-64
2022/04/18 14:21:58;;;;;;;9.80;2.50;;;;;;;;;;5054876;28;20044;-63
2022/04/18 14:24:24;;;;;;;10.13;2.80;;;;;;;;;;5061208;28;20260;-63
2022/04/18 14:26:51;;;;;;;17.73;3.22;;;;;;;;;;5063783;28;20036;-63
2022/04/18 14:29:17;;;;;;;8.32;2.60;;;;;;;;;;5062892;28;20135;-64
2022/04/18 14:31:43;;;;;;;13.50;2.50;;;;;;;;;;5058474;28;20048;-63
2022/04/18 14:34:10;;;;;;;14.27;3.08;;;;;;;;;;5063420;28;20127;-64
2022/04/18 14:36:36;;;;;;;12.02;2.78;;;;;;;;;;5060139;28;20036;-64
2022/04/18 14:39:03;;;;;;;9.90;2.03;;;;;;;;;;5061959;28;20036;-64
2022/04/18 14:41:29;;;;;;;10.68;2.47;;;;;;;;;;5058075;28;20033;-67
2022/04/18 14:43:56;;;;;;;12.88;2.60;;;;;;;;;;5060794;28;20052;-67
2022/04/18 14:46:22;;;;;;;12.48;2.72;;;;;;;;;;5057206;28;20418;-67
2022/04/18 14:48:52;;;;;;;11.50;2.88;;;;;;;;;;5057231;28;20083;-67
2022/04/18 14:51:18;;;;;;;11.05;2.70;;;;;;;;;;5056406;28;20094;-67
2022/04/18 14:53:44;;;;;;;12.93;3.33;;;;;;;;;;5060350;28;20500;-67
2022/04/18 14:56:10;;;;;;;18.63;2.85;;;;;;;;;;5056307;28;20041;-67
2022/04/18 14:58:36;;;;;;;12.88;2.85;;;;;;;;;;5009193;28;20046;-67
2022/04/18 15:01:04;;;;;;;10.25;2.35;;;;;;;;;;4975381;28;20034;-67
2022/04/18 15:03:30;;;;;;;12.57;2.22;;;;;;;;;;4969914;28;20510;-67
2022/04/18 15:05:57;;;;;;;7.90;2.15;;;;;;;;;;4976965;28;20061;-67
2022/04/18 15:08:23;;;;;;;14.25;2.70;;;;;;;;;;4972358;28;20077;-67
2022/04/18 15:10:49;;;;;;;11.63;2.20;;;;;;;;;;4971373;28;20525;-67
2022/04/18 15:13:15;;;;;;;12.95;3.30;;;;;;;;;;4975332;28;20030;-67
2022/04/18 15:15:42;;;;;;;12.25;2.35;;;;;;;;;;4974416;28;20026;-67
2022/04/18 15:18:09;;;;;;;13.38;3.65;;;;;;;;;;4972429;28;20046;-67
2022/04/18 15:20:36;;;;;;;9.43;2.58;;;;;;;;;;4972475;28;20492;-67
2022/04/18 15:23:02;;;;;;;10.63;2.50;;;;;;;;;;4977333;28;20122;-67